My Meet Scores
Maya Evans, Gym Kinetics Gymnastics - MyMeetScores.com
Top100 | Top Teams | Upcoming Meets | Completed Meets | Latest | Add Scores | Help| Support | Bookmark and Share

Maya Evans, Gym Kinetics Gymnastics
Personal Bests
LevelVault BarsBeamFloorAA
XG9.3258.950 9.5009.52536.550
XP8.9007.350 8.9008.97533.575
XS9.4759.525 9.7009.47537.725
Meet Scores
Date Meet Team Session Level Division Vault Bars Beam Floor AA
2021-03-26 Illinois State Meet Level 9,10, Platinum, Dia Gym Kinetics Gymnastics 02 XP Jr D 8.500 21 7.000 22 8.900 13T 8.575 20 32.975 21
2021-02-26 Kinetic Classic 2021 Gym Kinetics Gymnastics 14 XP Older 8.700 18 0.000 19T 8.275 18 8.975 18 25.950 19
2021-02-12 Harley Meet Women - Midwest Twisters Gym Kinetics Gymnastics B07 XP Jr B 8.600 11 0.000 12T 8.725 5 8.600 11 25.925 11
2021-01-21 King Arthur Invitational Gym Kinetics Gymnastics 9 XP JR 8.450 7 7.350 12 8.900 6 8.875 10 33.575 10
2021-01-14 2021 Bravo Classic Gym Kinetics Gymnastics 10 XP Jr 8.900 7T 0.000 14T 8.450 8T 7.650 14 25.000 14
2020-12-18 Aspire Classic Gym Kinetics Gymnastics 5 XP Older 8.800 8 0.000 8 8.900 3 8.700 7T 26.400 8
2020-02-21 Kinetic Classic Gym Kinetics Gymnastics 10 XG Middle 9.325 23T 8.500 71T 9.275 17T 9.450 19T 36.550 39T
2020-01-17 2020 Bravo Classic Gym Kinetics Gymnastics 3A XG Jr 9.275 5 7.000 15 9.275 2 8.450 15 34.000 15
2020-01-10 Leenda's Island Adventure Gym Kinetics Gymnastics GG9 XG 12 Year Ol 8.325 13 8.950 14 9.200 3 9.100 12T 35.575 9
2019-12-20 Aspire Classic - 2019 Gym Kinetics Gymnastics 9A XG Sr A 9.075 8 8.850 18 9.125 9T 9.450 6T 36.500 12T
2019-12-06 Ultimate Wish Classic Gym Kinetics Gymnastics 9 XG JR 8.850 8T 8.300 17 9.500 2T 9.525 4T 36.175 10
2019-04-13 2019 Illinois XB, XS State Championships Gym Kinetics Gymnastics 1 XS Sr A 9.275 16 9.500 19* 9.700 1T 9.200 16T 37.675 7T
2019-03-01 NGCD Academy's 2019 Flip'r Invitational Gym Kinetics Gymnastics 8 XS Jr B 9.350 4T 9.200 8T 9.525 2 9.475 3T 37.550 2
2019-02-23 Kinetic Classic 2019 Gym Kinetics Gymnastics 1 XS Older 9.100 3T 8.850 15 9.600 1 9.225 2 36.775 4
2019-02-08 Midwest Twisters Harley Meet Womens Gym Kinetics Gymnastics S10 XS 11 yrs. 9.100 3 9.500 1 9.650 2 9.150 10T 37.400 2
2019-01-18 2019 Bravo Classic Gym Kinetics Gymnastics 10B XS Sr 8.900 8 9.175 7 9.600 1 8.650 4T 36.325 2
2019-01-11 St Jude Benefit Meet Gym Kinetics Gymnastics 7C XS Sr A 9.475 1 9.525 4 9.575 1 9.150 8T 37.725 1
2018-12-14 2018 Aspire Classic Gym Kinetics Gymnastics 3 XS Middle 8.900 9T 9.325 10 9.100 10 9.250 4 36.575 7
2018-04-06 XCEL State Championships Gym Kinetics Gymnastics 3A XS Jr A 9.050 10T 9.050 22T 9.275 8T 9.400 8T 36.775 10T
2018-02-23 Kinetic Classic Gym Kinetics Gymnastics 8 XS Younger 8.600 51T 9.000 42T 9.350 16T 8.900 65T 35.850 42T
2018-02-03 Midwest Games Gym Kinetics Gymnastics 2 XS SR A 8.700 12 8.875 11 9.150 6T 9.100 6T 35.825 8
2018-01-19 2018 Bravo Classic Gym Kinetics Gymnastics 10A XS Jr 9.050 5T 9.150 9 9.450 3 9.300 2 36.950 3
2017-12-15 2017 Aspire Classic Gym Kinetics Gymnastics 11B XS Jr B 9.075 9 9.500 9T 9.150 3 9.200 2 36.925 5T
Get your scores on
a t-shirt, pin, or hoodie